createdAt,value
2018-06-15T00:00:24.177Z,99.76
2018-06-15T00:02:56.847Z,100.00
2018-06-15T00:05:23.878Z,99.18
2018-06-15T00:07:50.942Z,99.62
2018-06-15T00:10:18.845Z,99.45
2018-06-15T00:12:45.893Z,100.00
2018-06-15T00:15:12.921Z,99.19
2018-06-15T00:17:39.962Z,99.76
2018-06-15T00:20:07.057Z,99.53
2018-06-15T00:22:34.106Z,99.68
2018-06-15T00:25:01.219Z,99.61
2018-06-15T00:27:28.346Z,100.00
2018-06-15T00:29:55.349Z,99.35
2018-06-15T00:32:22.371Z,99.61
2018-06-15T00:34:49.741Z,99.42
2018-06-15T00:37:16.941Z,98.64
2018-06-15T00:39:43.977Z,99.17
2018-06-15T00:42:11.007Z,98.74
2018-06-15T00:44:38.044Z,97.44
2018-06-15T00:47:05.310Z,98.12
2018-06-15T00:49:32.361Z,97.63
2018-06-15T00:51:59.407Z,97.87
2018-06-15T00:54:26.432Z,97.07
2018-06-15T00:57:05.051Z,97.37
2018-06-15T00:59:32.166Z,96.86
2018-06-15T01:01:59.351Z,96.66
2018-06-15T01:04:26.398Z,97.08
2018-06-15T01:06:53.426Z,96.96
2018-06-15T01:09:20.531Z,97.46
2018-06-15T01:11:47.579Z,97.26
2018-06-15T01:14:14.610Z,97.59
2018-06-15T01:16:42.338Z,97.50
2018-06-15T01:19:09.386Z,97.09
2018-06-15T01:21:36.429Z,97.52
2018-06-15T01:24:03.470Z,97.69
2018-06-15T01:26:30.545Z,97.61
2018-06-15T01:28:57.576Z,97.83
2018-06-15T01:31:24.592Z,97.71
2018-06-15T01:33:51.669Z,98.26
2018-06-15T01:36:18.778Z,97.72
2018-06-15T01:38:45.834Z,97.39
2018-06-15T01:41:12.953Z,97.92
2018-06-15T01:43:40.090Z,97.90
2018-06-15T01:46:07.136Z,98.41
2018-06-15T01:48:34.181Z,99.02
2018-06-15T01:51:01.216Z,99.02
2018-06-15T01:53:28.723Z,98.82
2018-06-15T01:55:55.810Z,98.32
2018-06-15T01:58:23.372Z,98.44
2018-06-15T02:00:50.501Z,97.93
2018-06-15T02:03:17.594Z,97.91
2018-06-15T02:05:44.756Z,98.35
2018-06-15T02:08:11.839Z,98.28
2018-06-15T02:10:38.877Z,98.14
2018-06-15T02:13:05.998Z,98.47
2018-06-15T02:15:33.039Z,98.34
2018-06-15T02:18:00.086Z,98.29
2018-06-15T02:20:27.110Z,97.61
2018-06-15T02:22:54.162Z,98.03
2018-06-15T02:25:21.205Z,97.28
2018-06-15T02:27:48.337Z,98.32
2018-06-15T02:30:15.374Z,97.99
2018-06-15T02:32:42.492Z,97.62
2018-06-15T02:35:09.595Z,98.30
2018-06-15T02:37:36.619Z,98.52
2018-06-15T02:40:03.646Z,99.02
2018-06-15T02:42:30.676Z,98.74
2018-06-15T02:44:57.723Z,99.12
2018-06-15T02:47:24.759Z,99.09
2018-06-15T02:49:51.805Z,99.34
2018-06-15T02:52:18.830Z,98.92
2018-06-15T02:54:45.853Z,98.78
2018-06-15T02:57:14.038Z,98.68
2018-06-15T02:59:41.073Z,99.72
2018-06-15T03:02:08.241Z,99.50
2018-06-15T03:04:35.303Z,99.16
2018-06-15T03:07:02.333Z,99.60
2018-06-15T03:09:31.010Z,98.88
2018-06-15T03:11:58.124Z,99.16
2018-06-15T03:14:25.157Z,97.92
2018-06-15T03:16:52.190Z,98.06
2018-06-15T03:19:19.360Z,97.61
2018-06-15T03:21:46.470Z,98.02
2018-06-15T03:24:13.570Z,98.41
2018-06-15T03:26:40.593Z,98.97
2018-06-15T03:29:07.626Z,99.93
2018-06-15T03:31:34.637Z,100.00
2018-06-15T03:34:01.678Z,100.00
2018-06-15T03:36:28.841Z,100.00
2018-06-15T03:38:55.865Z,100.00
2018-06-15T03:41:22.878Z,100.00
2018-06-15T03:43:49.907Z,100.00
2018-06-15T03:46:16.993Z,100.00
2018-06-15T03:48:44.018Z,100.00
2018-06-15T03:51:11.029Z,100.00
2018-06-15T03:53:38.121Z,100.00
2018-06-15T03:56:05.154Z,100.00
2018-06-15T03:58:32.219Z,100.00
2018-06-15T04:00:59.291Z,100.00
2018-06-15T04:03:26.330Z,100.00
2018-06-15T04:05:53.611Z,100.00
2018-06-15T04:08:20.665Z,100.00
2018-06-15T04:10:47.685Z,100.00
2018-06-15T04:13:14.742Z,100.00
2018-06-15T04:15:41.758Z,100.00
2018-06-15T04:18:08.792Z,100.00
2018-06-15T04:20:37.220Z,100.00
2018-06-15T04:23:04.279Z,100.00
2018-06-15T04:25:31.606Z,100.00
2018-06-15T04:27:58.621Z,100.00
2018-06-15T04:30:25.624Z,100.00
2018-06-15T04:32:52.710Z,100.00
2018-06-15T04:35:19.912Z,100.00
2018-06-15T04:37:47.286Z,100.00
2018-06-15T04:40:14.301Z,100.00
2018-06-15T04:42:41.313Z,100.00
2018-06-15T04:45:08.595Z,100.00
2018-06-15T04:47:35.694Z,100.00
2018-06-15T04:50:02.895Z,100.00
2018-06-15T04:52:29.918Z,100.00
2018-06-15T04:54:56.960Z,99.37
2018-06-15T04:57:23.980Z,98.95
2018-06-15T04:59:50.995Z,98.76
2018-06-15T05:02:18.047Z,97.95
2018-06-15T05:04:45.633Z,98.12
2018-06-15T05:07:12.686Z,98.31
2018-06-15T05:09:39.798Z,97.92
2018-06-15T05:12:06.806Z,97.55
2018-06-15T05:14:33.842Z,98.45
2018-06-15T05:17:00.861Z,97.15
2018-06-15T05:19:27.888Z,97.31
2018-06-15T05:21:54.998Z,97.22
2018-06-15T05:24:22.039Z,96.70
2018-06-15T05:26:49.146Z,95.35
2018-06-15T05:29:16.179Z,95.83
2018-06-15T05:31:43.177Z,94.61
2018-06-15T05:34:10.192Z,94.21
2018-06-15T05:36:37.222Z,94.64
2018-06-15T05:39:08.980Z,93.97
2018-06-15T05:41:36.038Z,91.30
2018-06-15T05:44:03.375Z,91.10
2018-06-15T05:46:30.478Z,90.48
2018-06-15T05:48:57.517Z,89.94
2018-06-15T05:51:24.565Z,89.33
2018-06-15T05:53:51.594Z,89.23
2018-06-15T05:56:25.501Z,89.12
2018-06-15T05:58:52.517Z,88.83
2018-06-15T06:01:19.598Z,88.87
2018-06-15T06:03:46.619Z,88.37
2018-06-15T06:06:13.706Z,86.43
2018-06-15T06:08:40.733Z,88.79
2018-06-15T06:11:07.757Z,85.66
2018-06-15T06:13:34.797Z,85.76
2018-06-15T06:16:01.905Z,84.09
2018-06-15T06:18:29.210Z,81.52
2018-06-15T06:20:56.247Z,83.87
2018-06-15T06:23:23.249Z,81.33
2018-06-15T06:25:50.343Z,82.72
2018-06-15T06:28:17.417Z,80.46
2018-06-15T06:30:44.465Z,81.90
2018-06-15T06:33:11.532Z,78.58
2018-06-15T06:35:38.562Z,78.79
2018-06-15T06:38:05.600Z,75.78
2018-06-15T06:40:32.862Z,75.19
2018-06-15T06:43:00.035Z,73.18
2018-06-15T06:45:27.142Z,72.72
2018-06-15T06:47:54.206Z,72.57
2018-06-15T06:50:21.297Z,71.91
2018-06-15T06:52:48.444Z,69.71
2018-06-15T06:55:15.503Z,68.17
2018-06-15T06:57:42.533Z,70.30
2018-06-15T07:00:09.567Z,71.79
2018-06-15T07:02:36.599Z,66.46
2018-06-15T07:05:03.657Z,66.23
2018-06-15T07:07:30.705Z,65.56
2018-06-15T07:09:57.734Z,64.17
2018-06-15T07:12:24.829Z,62.92
2018-06-15T07:14:53.971Z,62.05
2018-06-15T07:17:21.016Z,63.33
2018-06-15T07:19:48.055Z,61.98
2018-06-15T07:22:15.103Z,58.04
2018-06-15T07:24:42.246Z,59.15
2018-06-15T07:27:09.258Z,59.17
2018-06-15T07:29:36.291Z,60.25
2018-06-15T07:32:03.710Z,59.42
2018-06-15T07:34:30.754Z,58.98
2018-06-15T07:36:57.821Z,59.47
2018-06-15T07:39:24.978Z,58.41
2018-06-15T07:41:52.941Z,57.87
2018-06-15T07:44:21.990Z,58.35
2018-06-15T07:46:49.018Z,57.15
2018-06-15T07:49:16.402Z,57.21
2018-06-15T07:51:43.401Z,58.75
2018-06-15T07:54:10.446Z,59.63
2018-06-15T07:56:38.157Z,59.86
2018-06-15T07:59:06.133Z,58.65
2018-06-15T08:01:33.352Z,59.83
2018-06-15T08:04:03.265Z,60.50
2018-06-15T08:06:30.650Z,59.73
2018-06-15T08:08:58.092Z,59.09
2018-06-15T08:11:25.125Z,57.97
2018-06-15T08:13:52.230Z,56.84
2018-06-15T08:16:19.322Z,56.13
2018-06-15T08:18:46.433Z,56.15
2018-06-15T08:21:13.543Z,55.28
2018-06-15T08:23:40.562Z,55.35
2018-06-15T08:26:07.593Z,53.66
2018-06-15T08:28:34.763Z,53.61
2018-06-15T08:31:01.804Z,53.85
2018-06-15T08:33:28.922Z,52.45
2018-06-15T08:35:55.968Z,51.01
2018-06-15T08:38:23.093Z,51.08
2018-06-15T08:40:50.229Z,50.17
2018-06-15T08:43:17.373Z,51.67
2018-06-15T08:45:44.413Z,50.02
2018-06-15T08:48:12.522Z,51.29
2018-06-15T08:50:39.854Z,51.50
2018-06-15T08:53:06.944Z,53.13
2018-06-15T08:55:34.067Z,50.94
2018-06-15T08:58:01.083Z,49.91
2018-06-15T09:00:28.179Z,49.80
2018-06-15T09:02:55.261Z,50.62
2018-06-15T09:05:22.533Z,49.48
2018-06-15T09:07:49.680Z,48.43
2018-06-15T09:10:16.775Z,50.53
2018-06-15T09:12:43.994Z,50.74
2018-06-15T09:15:10.986Z,51.25
2018-06-15T09:17:37.981Z,48.96
2018-06-15T09:20:05.100Z,49.67
2018-06-15T09:22:32.214Z,48.03
2018-06-15T09:24:59.389Z,47.12
2018-06-15T09:27:26.391Z,44.88
2018-06-15T09:29:53.754Z,44.68
2018-06-15T09:32:20.786Z,45.17
2018-06-15T09:34:47.809Z,45.37
2018-06-15T09:37:14.910Z,45.73
2018-06-15T09:39:41.953Z,45.60
2018-06-15T09:42:09.586Z,45.40
2018-06-15T09:44:36.709Z,45.02
2018-06-15T09:47:03.802Z,46.89
2018-06-15T09:49:30.811Z,45.58
2018-06-15T09:51:57.969Z,47.50
2018-06-15T09:54:25.005Z,45.90
2018-06-15T09:56:52.021Z,45.04
2018-06-15T09:59:19.994Z,45.51
2018-06-15T10:01:47.097Z,44.62
2018-06-15T10:04:14.110Z,42.86
2018-06-15T10:06:41.106Z,42.16
2018-06-15T10:09:08.148Z,42.57
2018-06-15T10:11:35.221Z,40.81
2018-06-15T10:14:03.599Z,42.35
2018-06-15T10:16:31.408Z,41.33
2018-06-15T10:18:59.513Z,41.81
2018-06-15T10:21:27.743Z,40.58
2018-06-15T10:23:56.081Z,42.11
2018-06-15T10:26:23.953Z,40.92
2018-06-15T10:28:52.071Z,41.37
2018-06-15T10:31:20.321Z,41.20
2018-06-15T10:33:48.764Z,39.33
2018-06-15T10:36:16.942Z,39.86
2018-06-15T10:38:45.100Z,40.58
2018-06-15T10:41:13.573Z,40.92
2018-06-15T10:43:40.677Z,39.72
2018-06-15T10:46:07.885Z,39.78
2018-06-15T10:48:34.906Z,43.44
2018-06-15T10:51:02.050Z,40.51
2018-06-15T10:53:29.054Z,40.21
2018-06-15T10:55:56.357Z,41.40
2018-06-15T10:58:23.356Z,39.65
2018-06-15T11:00:50.384Z,38.70
2018-06-15T11:03:17.509Z,41.37
2018-06-15T11:05:44.547Z,40.58
2018-06-15T11:08:11.718Z,39.59
2018-06-15T11:10:38.756Z,39.38
2018-06-15T11:13:05.768Z,38.81
2018-06-15T11:15:32.853Z,38.34
2018-06-15T11:17:59.867Z,39.54
2018-06-15T11:20:26.944Z,39.39
2018-06-15T11:22:54.186Z,38.80
2018-06-15T11:25:22.492Z,39.30
2018-06-15T11:27:49.528Z,37.78
2018-06-15T11:30:16.758Z,38.86
2018-06-15T11:32:43.757Z,38.30
2018-06-15T11:35:10.822Z,38.93
2018-06-15T11:37:37.853Z,37.68
2018-06-15T11:40:04.881Z,37.79
2018-06-15T11:42:31.882Z,38.89
2018-06-15T11:44:59.164Z,38.42
2018-06-15T11:47:26.185Z,37.34
2018-06-15T11:49:53.245Z,37.82
2018-06-15T11:52:20.420Z,39.37
2018-06-15T11:54:47.449Z,37.47
2018-06-15T11:57:14.489Z,38.29
2018-06-15T11:59:41.842Z,38.46
2018-06-15T12:02:08.899Z,37.11
2018-06-15T12:04:35.906Z,38.22
2018-06-15T12:07:02.953Z,38.31
2018-06-15T12:09:29.997Z,38.76
2018-06-15T12:11:57.013Z,39.55
2018-06-15T12:14:24.302Z,37.91
2018-06-15T12:16:51.837Z,37.68
2018-06-15T12:19:19.254Z,37.07
2018-06-15T12:21:46.934Z,38.04
2018-06-15T12:24:14.652Z,37.02
2018-06-15T12:26:41.759Z,36.21
2018-06-15T12:29:08.777Z,35.94
2018-06-15T12:31:35.897Z,35.47
2018-06-15T12:34:03.001Z,35.40
2018-06-15T12:36:30.099Z,36.47
2018-06-15T12:38:57.324Z,35.26
2018-06-15T12:41:24.413Z,33.98
2018-06-15T12:43:51.497Z,35.85
2018-06-15T12:46:18.601Z,35.81
2018-06-15T12:48:45.599Z,34.35
2018-06-15T12:51:12.641Z,34.17
2018-06-15T12:53:39.620Z,34.13
2018-06-15T12:56:06.651Z,33.17
2018-06-15T12:58:33.661Z,33.51
2018-06-15T13:01:00.781Z,34.20
2018-06-15T13:03:27.896Z,33.90
2018-06-15T13:05:55.029Z,33.29
2018-06-15T13:08:22.033Z,32.90
2018-06-15T13:10:49.105Z,32.43
2018-06-15T13:13:16.242Z,33.82
2018-06-15T13:15:43.313Z,33.52
2018-06-15T13:18:10.339Z,32.92
2018-06-15T13:20:37.495Z,32.92
2018-06-15T13:23:04.809Z,34.53
2018-06-15T13:25:32.882Z,34.45
2018-06-15T13:27:59.918Z,35.19
2018-06-15T13:30:27.026Z,34.04
2018-06-15T13:32:54.453Z,33.21
2018-06-15T13:35:21.684Z,32.80
2018-06-15T13:37:48.807Z,34.15
2018-06-15T13:40:15.929Z,34.18
2018-06-15T13:42:44.504Z,33.33
2018-06-15T13:45:11.795Z,34.87
2018-06-15T13:47:38.793Z,33.04
2018-06-15T13:50:06.196Z,33.13
2018-06-15T13:52:33.213Z,32.95
2018-06-15T13:55:00.241Z,33.20
2018-06-15T13:57:27.360Z,32.48
2018-06-15T13:59:54.833Z,33.42
2018-06-15T14:02:22.374Z,32.56
2018-06-15T14:04:49.573Z,33.58
2018-06-15T14:07:16.654Z,33.49
2018-06-15T14:09:43.678Z,33.27
2018-06-15T14:12:10.870Z,32.46
2018-06-15T14:14:45.470Z,32.31
2018-06-15T14:17:12.579Z,32.85
2018-06-15T14:19:39.594Z,33.85
2018-06-15T14:22:06.651Z,33.96
2018-06-15T14:24:34.117Z,33.05
2018-06-15T14:27:01.156Z,32.91
2018-06-15T14:29:28.313Z,32.21
2018-06-15T14:31:55.414Z,32.12
2018-06-15T14:34:22.485Z,33.74
2018-06-15T14:36:51.369Z,32.52
2018-06-15T14:39:18.453Z,31.50
2018-06-15T14:41:46.085Z,32.44
2018-06-15T14:44:13.081Z,31.07
2018-06-15T14:46:40.173Z,33.14
2018-06-15T14:49:07.194Z,31.43
2018-06-15T14:51:34.201Z,33.40
2018-06-15T14:54:01.274Z,36.20
2018-06-15T14:56:28.444Z,34.81
2018-06-15T14:58:55.480Z,35.59
2018-06-15T15:01:22.659Z,35.50
2018-06-15T15:03:49.738Z,36.28
2018-06-15T15:06:16.748Z,37.30
2018-06-15T15:08:43.992Z,37.40
2018-06-15T15:11:11.051Z,35.50
2018-06-15T15:13:38.158Z,36.32
2018-06-15T15:16:05.189Z,35.30
2018-06-15T15:18:32.208Z,35.59
2018-06-15T15:21:00.271Z,34.91
2018-06-15T15:23:27.318Z,36.32
2018-06-15T15:25:54.321Z,36.86
2018-06-15T15:28:21.327Z,35.74
2018-06-15T15:30:48.350Z,35.71
2018-06-15T15:33:15.362Z,37.40
2018-06-15T15:35:42.532Z,38.16
2018-06-15T15:38:09.567Z,37.53
2018-06-15T15:40:36.569Z,37.60
2018-06-15T15:43:03.669Z,35.96
2018-06-15T15:45:30.665Z,35.00
2018-06-15T15:47:57.769Z,35.52
2018-06-15T15:50:25.390Z,33.34
2018-06-15T15:52:52.381Z,33.14
2018-06-15T15:55:19.401Z,32.14
2018-06-15T15:57:46.487Z,34.59
2018-06-15T16:00:13.469Z,33.63
2018-06-15T16:02:40.599Z,34.86
2018-06-15T16:05:07.654Z,36.58
2018-06-15T16:07:35.070Z,36.60
2018-06-15T16:10:02.162Z,36.93
2018-06-15T16:12:29.202Z,35.80
2018-06-15T16:14:56.222Z,35.25
2018-06-15T16:17:23.270Z,35.71
2018-06-15T16:19:50.469Z,34.57
2018-06-15T16:22:17.553Z,33.91
2018-06-15T16:24:44.892Z,35.43
2018-06-15T16:27:12.029Z,34.90
2018-06-15T16:29:39.214Z,37.68
2018-06-15T16:32:06.306Z,34.43
2018-06-15T16:34:33.403Z,32.83
2018-06-15T16:37:00.577Z,33.77
2018-06-15T16:39:27.615Z,33.80
2018-06-15T16:41:54.694Z,33.34
2018-06-15T16:44:21.718Z,33.61
2018-06-15T16:46:49.021Z,33.79
2018-06-15T16:49:16.027Z,34.54
2018-06-15T16:51:43.022Z,36.08
2018-06-15T16:54:10.070Z,36.07
2018-06-15T16:56:37.157Z,35.96
2018-06-15T16:59:04.169Z,34.87
2018-06-15T17:01:31.413Z,35.10
2018-06-15T17:03:58.426Z,34.78
2018-06-15T17:06:25.514Z,34.64
2018-06-15T17:08:52.825Z,35.64
2018-06-15T17:11:19.836Z,35.87
2018-06-15T17:13:46.837Z,34.52
2018-06-15T17:16:13.976Z,36.86
2018-06-15T17:18:40.905Z,37.25
2018-06-15T17:21:07.917Z,37.39
2018-06-15T17:23:35.105Z,38.21
2018-06-15T17:26:02.213Z,38.29
2018-06-15T17:28:29.230Z,38.60
2018-06-15T17:30:56.277Z,37.75
2018-06-15T17:33:23.290Z,37.99
2018-06-15T17:35:50.293Z,43.36
2018-06-15T17:38:17.484Z,37.48
2018-06-15T17:40:44.498Z,38.80
2018-06-15T17:43:11.501Z,39.21
2018-06-15T17:45:38.533Z,39.42
2018-06-15T17:48:05.603Z,39.96
2018-06-15T17:50:32.674Z,41.19
2018-06-15T17:52:59.797Z,40.76
2018-06-15T17:55:26.811Z,40.82
2018-06-15T17:57:53.877Z,41.04
2018-06-15T18:00:20.977Z,41.70
2018-06-15T18:02:48.006Z,41.20
2018-06-15T18:05:15.033Z,42.05
2018-06-15T18:07:45.665Z,41.65
2018-06-15T18:10:12.671Z,41.99
2018-06-15T18:12:39.676Z,41.60
2018-06-15T18:15:06.730Z,41.03
2018-06-15T18:17:34.052Z,41.40
2018-06-15T18:20:01.029Z,41.88
2018-06-15T18:22:28.029Z,41.17
2018-06-15T18:24:55.146Z,41.68
2018-06-15T18:27:22.156Z,43.37
2018-06-15T18:29:49.182Z,41.78
2018-06-15T18:32:16.288Z,42.42
2018-06-15T18:34:43.316Z,43.44
2018-06-15T18:37:10.420Z,41.98
2018-06-15T18:39:37.469Z,42.99
2018-06-15T18:42:04.646Z,43.32
2018-06-15T18:44:31.652Z,43.94
2018-06-15T18:46:58.657Z,44.12
2018-06-15T18:49:25.705Z,45.37
2018-06-15T18:51:52.798Z,44.47
2018-06-15T18:54:19.945Z,44.29
2018-06-15T18:56:47.058Z,45.30
2018-06-15T18:59:14.421Z,45.54
2018-06-15T19:01:41.597Z,46.35
2018-06-15T19:04:08.605Z,46.47
2018-06-15T19:06:35.707Z,46.58
2018-06-15T19:09:03.906Z,46.87
2018-06-15T19:11:30.911Z,48.17
2018-06-15T19:13:58.046Z,47.27
2018-06-15T19:16:25.082Z,47.87
2018-06-15T19:18:52.174Z,48.33
2018-06-15T19:21:19.241Z,48.58
2018-06-15T19:23:46.434Z,48.61
2018-06-15T19:26:13.442Z,49.13
2018-06-15T19:28:40.538Z,48.86
2018-06-15T19:31:07.775Z,49.62
2018-06-15T19:33:34.850Z,49.79
2018-06-15T19:36:01.920Z,50.44
2018-06-15T19:38:29.026Z,49.69
2018-06-15T19:40:56.136Z,49.79
2018-06-15T19:43:23.153Z,50.04
2018-06-15T19:45:50.274Z,50.77
2018-06-15T19:48:17.371Z,51.53
2018-06-15T19:50:44.442Z,51.32
2018-06-15T19:53:11.541Z,51.64
2018-06-15T19:55:38.574Z,51.87
2018-06-15T19:58:05.689Z,52.53
2018-06-15T20:00:32.793Z,52.66
2018-06-15T20:03:00.001Z,52.47
2018-06-15T20:05:27.088Z,52.50
2018-06-15T20:07:54.279Z,52.63
2018-06-15T20:10:21.393Z,52.51
2018-06-15T20:12:48.484Z,53.11
2018-06-15T20:15:15.572Z,53.74
2018-06-15T20:17:42.616Z,53.32
2018-06-15T20:20:09.708Z,53.11
2018-06-15T20:22:36.902Z,53.12
2018-06-15T20:25:03.954Z,54.14
2018-06-15T20:27:31.045Z,53.76
2018-06-15T20:29:58.072Z,54.01
2018-06-15T20:32:25.177Z,53.87
2018-06-15T20:34:52.176Z,53.91
2018-06-15T20:37:19.403Z,53.81
2018-06-15T20:39:46.410Z,54.49
2018-06-15T20:42:13.617Z,54.15
2018-06-15T20:44:40.650Z,54.57
2018-06-15T20:47:07.683Z,54.59
2018-06-15T20:49:34.681Z,54.51
2018-06-15T20:52:08.733Z,55.14
2018-06-15T20:54:35.754Z,54.82
2018-06-15T20:57:02.776Z,55.58
2018-06-15T20:59:29.873Z,55.38
2018-06-15T21:01:56.965Z,55.29
2018-06-15T21:04:23.982Z,55.13
2018-06-15T21:06:51.040Z,55.23
2018-06-15T21:09:18.138Z,55.27
2018-06-15T21:11:45.461Z,56.33
2018-06-15T21:14:12.561Z,55.90
2018-06-15T21:16:39.593Z,55.92
2018-06-15T21:19:06.773Z,56.01
2018-06-15T21:21:33.838Z,56.56
2018-06-15T21:24:00.892Z,56.49
2018-06-15T21:26:27.897Z,56.55
2018-06-15T21:28:55.201Z,56.11
2018-06-15T21:31:22.284Z,56.89
2018-06-15T21:33:49.329Z,56.41
2018-06-15T21:36:16.328Z,56.52
2018-06-15T21:38:43.325Z,57.14
2018-06-15T21:41:10.693Z,56.46
2018-06-15T21:43:37.780Z,56.91
2018-06-15T21:46:04.830Z,56.35
2018-06-15T21:48:31.860Z,56.18
2018-06-15T21:50:58.958Z,56.30
2018-06-15T21:53:26.091Z,55.87
2018-06-15T21:55:53.173Z,56.39
2018-06-15T21:58:20.341Z,55.69
2018-06-15T22:00:47.561Z,55.82
2018-06-15T22:03:14.604Z,55.95
2018-06-15T22:05:41.601Z,55.47
2018-06-15T22:08:08.789Z,55.22
2018-06-15T22:10:35.806Z,55.46
2018-06-15T22:13:02.890Z,55.83
2018-06-15T22:15:29.917Z,55.24
2018-06-15T22:17:56.941Z,55.50
2018-06-15T22:20:24.059Z,54.99
2018-06-15T22:22:51.606Z,54.75
2018-06-15T22:25:18.694Z,54.88
2018-06-15T22:27:45.713Z,55.26
2018-06-15T22:30:12.729Z,54.68
2018-06-15T22:32:39.743Z,54.41
2018-06-15T22:35:06.855Z,54.20
2018-06-15T22:37:33.869Z,54.57
2018-06-15T22:40:00.966Z,54.05
2018-06-15T22:42:28.021Z,54.44
2018-06-15T22:44:55.030Z,54.20
2018-06-15T22:47:22.125Z,55.02
2018-06-15T22:49:49.224Z,54.94
2018-06-15T22:52:16.329Z,54.51
2018-06-15T22:54:43.330Z,54.70
2018-06-15T22:57:10.332Z,53.89
2018-06-15T22:59:37.457Z,53.72
2018-06-15T23:02:04.502Z,53.74
2018-06-15T23:04:31.506Z,54.19
2018-06-15T23:06:58.541Z,54.77
2018-06-15T23:09:25.692Z,53.80
2018-06-15T23:11:52.796Z,54.20
2018-06-15T23:14:19.820Z,54.19
2018-06-15T23:16:46.819Z,53.63
2018-06-15T23:19:13.838Z,53.95
2018-06-15T23:21:40.852Z,53.56
2018-06-15T23:24:07.981Z,53.73
2018-06-15T23:26:35.076Z,53.88
2018-06-15T23:29:02.172Z,53.80
2018-06-15T23:31:29.214Z,54.04
2018-06-15T23:33:56.220Z,53.42
2018-06-15T23:36:23.330Z,53.61
2018-06-15T23:38:50.590Z,53.47
2018-06-15T23:41:17.613Z,53.75
2018-06-15T23:43:44.634Z,53.37
2018-06-15T23:46:12.043Z,52.73
2018-06-15T23:48:39.175Z,53.25
2018-06-15T23:51:06.186Z,52.95
2018-06-15T23:53:33.394Z,52.86
2018-06-15T23:56:00.433Z,53.02
2018-06-15T23:58:27.566Z,53.31
